Pagina principală
METAR-TAF:

METAR-TAF

Aeroporturi :

Comitatul Stanton, Kansas, Statele Unite ale Americii

Latitudine: 37-35-07N, longitudine: 101-43-56W, elevație: 1013 m

Observații meteo curente

Raportul a fost făcut în urmă cu 19 de minute, la 10:55 UTC
Vânt 4 kt de la Sud-vest
Temperatură 8°C
Umiditate 57%
Presiune 998 hPa
Vizibilitate: 16.1 km
Cer senin

METAR: KJHN 271055Z AUTO 23004KT 10SM CLR 08/00 A2948 RMK AO2 T00801003

Ora: 05:14 (11:14 UTC)


TAF: lipsă

Observații și prognoze meteo pentru peste 4.000 de aeroporturi (rapoarte METAR și TAF).

Stațiile disponibile sunt reprezentate pe hartă prin puncte galbene și roșii.

Țineți indicatorul mouse-ului pe punctul dorit pentru a vedea denumirea stației.

Apoi, faceți clic pentru a vedea observațiile și prognozele meteorologice.

Pentru a schimba harta: Pentru mărire, faceți clic pe butoanele verzi cu cruce neagră; pentru micșorare, pe butonul verde cu o liniuță; pentru hărți învecinate, pe săgețile verzi.


METAR-TAF: